Архив погоды в Кош-Агаче

Метеограмма Кош-Агач
Пятница, 22 Июня
Время местн. Темп Ветер Видим Явления Облачность нижн/средн/верх Атм. давл. Влжн Точка росы ВНГО R Сост. почвы Tg s
Напр Скр Прв ур.ст ур.м изм
18:00 +20.1° С-З 2 - более 50 км - облачно с прояснениями 616 634 -0.3 22% -2° 1 км 0 - - -
15:00 +22.1° З 2 - более 50 км - переменная облачность 616 635 -1.2 20% -1.7° 1.5 км - - - -
12:00 +19.5° З,Ю-З 2 - более 50 км - переменная облачность 617 636 -1.1 26% -0.6° 1.5 км - - - -
09:00 +16.4° Ю 1 - 50 км - переменная облачность 618 637 -0.3 40% +2.8° 1.5 км - - - -
06:00 +10.3° В 1 - 50 км - переменная облачность 619 638 +0.5 62% +3.4° 1.5 км 0 Сухая (без трещин) - -
03:00 +10.1° В,Ю-В 3 - 50 км - облачно с прояснениями 618 638 +0.4 64% +3.5° 1.5 км - - - -
00:00 +10.1° Ю 3 - 50 км - переменная облачность 618 637 +1 64% +3.7° 1 км - - - -
Четверг, 21 Июня
Время местн. Темп Ветер Видим Явления Облачность нижн/средн/верх Атм. давл. Влжн Точка росы ВНГО R Сост. почвы Tg s
Напр Скр Прв ур.ст ур.м изм
21:00 +15.7° С-З 3 - 50 км - переменная облачность 617 636 +1.3 37% +1° 1 км - - - -
18:00 +18.7° С 5 10 50 км - переменная облачность 615 634 +0.2 32% +1.6° 1 км 0.3 - - -
15:00 +20° З 4 11 более 50 км - переменная облачность 615 634 -0.8 24% -1° 1 км - - - -
12:00 +16.7° З,Ю-З 1 - 50 км ливневый дождь облачно 616 635 0 53% +7.2° 1 км - - - -
09:00 +15.1° Ю 1 - 50 км осадки вдали станции облачно 616 635 -0.1 61% +7.6° 1 км - - - -
06:00 +11.5° В 3 - 50 км ливневый дождь облачно 616 635 +0.5 78% +7.8° 1 км 0.4 Влажная (без луж) - -
03:00 +14.5° В 3 - более 50 км - облачно 615 635 +0.5 44% +2.3° 1 км - - - -
00:00 +12.9° В 1 - более 50 км - облачно с прояснениями 615 634 +0.4 52% +3.2° 1 км - - - -
Среда, 20 Июня
Время местн. Темп Ветер Видим Явления Облачность нижн/средн/верх Атм. давл. Влжн Точка росы ВНГО R Сост. почвы Tg s
Напр Скр Прв ур.ст ур.м изм
21:00 +18° З 4 - более 50 км - облачно 615 633 +1 34% +2° 1 км - - - -
18:00 +23.1° З 5 - более 50 км - облачно 614 632 -0.1 24% +1.4° 1 км 0 - - -
15:00 +24.1° З,С-З 1 - более 50 км - облачно 614 632 -0.8 18% -1.6° 1 км - - - -
12:00 +22.6° Ю,Ю-З 2 - более 50 км - облачно 615 633 -0.7 22% -0.4° 1 км - - - -
09:00 +20° Ю,Ю-В 1 - более 50 км - переменная облачность 615 634 -0.2 31% +2.2° 1 км - - - -
06:00 +11.8° С 1 - 50 км - переменная облачность 615 635 +0.5 63% +5° 1.5 км 0 Сухая (без трещин) - -
03:00 +10.5° В 1 - 50 км - переменная облачность 615 634 +0.8 67% +4.7° 1 км - - - -
00:00 +15.7° С,С-В 2 - 50 км - переменная облачность 614 633 +0.9 50% +5.2° 1 км - - - -
Вторник, 19 Июня
Время местн. Темп Ветер Видим Явления Облачность нижн/средн/верх Атм. давл. Влжн Точка росы ВНГО R Сост. почвы Tg s
Напр Скр Прв ур.ст ур.м изм
21:00 +20.1° С-З 6 10 более 50 км - переменная облачность 613 632 +0.8 28% +0.9° 1 км - - - -
18:00 +23.3° З 2 - 50 км - облачно с прояснениями 612 631 -0.5 24% +1.4° 1 км 0 - - -
15:00 +22.5° З 3 - 50 км - облачно с прояснениями 613 631 -0.8 26% +2.2° 1 км - - - -